createdAt,value
2019-06-07T00:01:08.442Z,16.39
2019-06-07T00:03:39.287Z,16.25
2019-06-07T00:06:16.428Z,16.24
2019-06-07T00:08:44.170Z,16.23
2019-06-07T00:11:18.595Z,16.02
2019-06-07T00:13:48.491Z,15.96
2019-06-07T00:16:23.203Z,15.98
2019-06-07T00:18:53.520Z,15.99
2019-06-07T00:22:12.280Z,16.04
2019-06-07T00:23:58.494Z,16.03
2019-06-07T00:26:29.954Z,16.02
2019-06-07T00:29:01.695Z,16.00
2019-06-07T00:31:33.368Z,15.92
2019-06-07T00:34:04.796Z,15.98
2019-06-07T00:36:37.466Z,16.01
2019-06-07T00:39:10.667Z,16.04
2019-06-07T00:41:42.393Z,16.03
2019-06-07T00:44:15.142Z,15.96
2019-06-07T00:46:48.350Z,15.98
2019-06-07T00:49:36.186Z,15.99
2019-06-07T00:51:53.835Z,15.98
2019-06-07T00:54:25.745Z,16.04
2019-06-07T00:56:57.237Z,16.12
2019-06-07T00:59:29.887Z,16.10
2019-06-07T01:02:01.478Z,16.14
2019-06-07T01:04:33.034Z,16.09
2019-06-07T01:07:04.826Z,16.02
2019-06-07T01:09:36.222Z,15.91
2019-06-07T01:12:07.897Z,15.87
2019-06-07T01:14:39.824Z,15.86
2019-06-07T01:17:39.931Z,15.78
2019-06-07T01:19:58.174Z,15.82
2019-06-07T01:22:30.119Z,15.64
2019-06-07T01:25:01.906Z,15.64
2019-06-07T01:27:34.785Z,15.57
2019-06-07T01:30:08.491Z,15.55
2019-06-07T01:32:40.147Z,15.47
2019-06-07T01:35:11.808Z,15.49
2019-06-07T01:37:43.599Z,15.45
2019-06-07T01:40:17.159Z,15.40
2019-06-07T01:42:48.952Z,15.44
2019-06-07T01:45:21.323Z,15.48
2019-06-07T01:47:53.188Z,15.51
2019-06-07T01:50:27.096Z,15.43
2019-06-07T01:52:58.226Z,15.42
2019-06-07T01:55:32.791Z,15.33
2019-06-07T01:58:03.584Z,15.32
2019-06-07T02:00:35.235Z,15.25
2019-06-07T02:03:07.221Z,15.26
2019-06-07T02:05:38.889Z,15.24
2019-06-07T02:08:10.434Z,15.25
2019-06-07T02:10:42.099Z,15.25
2019-06-07T02:13:13.804Z,15.11
2019-06-07T02:15:45.221Z,15.10
2019-06-07T02:18:17.118Z,15.21
2019-06-07T02:20:48.743Z,15.14
2019-06-07T02:23:20.745Z,15.07
2019-06-07T02:25:52.893Z,15.06
2019-06-07T02:28:42.234Z,15.01
2019-06-07T02:31:00.254Z,15.04
2019-06-07T02:33:35.073Z,15.10
2019-06-07T02:36:04.184Z,15.07
2019-06-07T02:38:37.794Z,14.97
2019-06-07T02:41:09.421Z,15.01
2019-06-07T02:43:40.909Z,14.97
2019-06-07T02:46:32.520Z,14.96
2019-06-07T02:48:57.191Z,14.86
2019-06-07T02:51:37.797Z,14.81
2019-06-07T02:54:01.693Z,14.71
2019-06-07T02:56:45.053Z,14.70
2019-06-07T02:59:06.849Z,14.63
2019-06-07T03:01:42.038Z,14.72
2019-06-07T03:04:12.423Z,14.81
2019-06-07T03:06:44.350Z,14.88
2019-06-07T03:09:17.502Z,14.91
2019-06-07T03:11:51.179Z,15.00
2019-06-07T03:14:25.999Z,15.11
2019-06-07T03:17:08.554Z,15.21
2019-06-07T03:19:44.792Z,15.26
2019-06-07T03:22:16.449Z,15.35
2019-06-07T03:24:49.401Z,15.17
2019-06-07T03:27:34.978Z,15.33
2019-06-07T03:29:54.486Z,15.47
2019-06-07T03:32:29.216Z,15.53
2019-06-07T03:34:59.608Z,15.59
2019-06-07T03:37:37.624Z,15.70
2019-06-07T03:40:04.845Z,15.68
2019-06-07T03:42:39.748Z,15.66
2019-06-07T03:45:09.944Z,15.68
2019-06-07T03:47:42.962Z,15.61
2019-06-07T03:50:16.261Z,15.63
2019-06-07T03:52:48.862Z,15.72
2019-06-07T03:55:20.711Z,15.79
2019-06-07T04:00:25.721Z,15.86
2019-06-07T04:02:57.366Z,15.89
2019-06-07T04:05:32.125Z,15.92
2019-06-07T04:08:02.131Z,15.98
2019-06-07T04:10:55.937Z,16.11
2019-06-07T04:13:06.869Z,16.08
2019-06-07T04:15:41.342Z,16.12
2019-06-07T04:18:12.020Z,16.26
2019-06-07T04:20:43.535Z,16.01
2019-06-07T04:23:27.820Z,15.91
2019-06-07T04:25:48.191Z,15.89
2019-06-07T04:28:19.509Z,15.93
2019-06-07T04:30:51.317Z,15.94
2019-06-07T04:33:22.883Z,15.98
2019-06-07T04:35:56.881Z,16.19
2019-06-07T04:38:32.685Z,16.20
2019-06-07T04:41:04.330Z,16.34
2019-06-07T04:43:40.576Z,16.44
2019-06-07T04:46:12.721Z,16.65
2019-06-07T04:48:45.889Z,16.62
2019-06-07T04:51:20.057Z,16.48
2019-06-07T04:53:51.555Z,16.58
2019-06-07T04:56:23.060Z,16.67
2019-06-07T04:58:55.624Z,17.05
2019-06-07T05:01:30.412Z,17.27
2019-06-07T05:04:00.582Z,17.33
2019-06-07T05:06:34.881Z,17.53
2019-06-07T05:09:06.747Z,17.71
2019-06-07T05:11:39.430Z,17.87
2019-06-07T05:14:11.657Z,18.16
2019-06-07T05:16:44.378Z,18.46
2019-06-07T05:19:16.461Z,18.60
2019-06-07T05:22:02.480Z,19.37
2019-06-07T05:24:21.337Z,20.17
2019-06-07T05:26:53.033Z,20.94
2019-06-07T05:29:24.845Z,21.31
2019-06-07T05:31:56.613Z,22.15
2019-06-07T05:34:28.259Z,22.77
2019-06-07T05:37:11.593Z,22.75
2019-06-07T05:39:36.861Z,23.28
2019-06-07T05:42:08.043Z,24.15
2019-06-07T05:44:43.647Z,24.35
2019-06-07T05:47:13.537Z,24.16
2019-06-07T05:49:47.109Z,23.86
2019-06-07T05:52:18.826Z,24.33
2019-06-07T05:54:50.308Z,25.25
2019-06-07T05:57:21.745Z,25.86
2019-06-07T05:59:52.737Z,26.47
2019-06-07T06:02:25.119Z,27.00
2019-06-07T06:04:56.819Z,26.51
2019-06-07T06:07:28.318Z,24.78
2019-06-07T06:09:59.934Z,23.97
2019-06-07T06:12:35.411Z,24.65
2019-06-07T06:15:05.331Z,25.04
2019-06-07T06:17:40.935Z,25.01
2019-06-07T06:20:10.195Z,25.98
2019-06-07T06:22:47.278Z,26.70
2019-06-07T06:25:31.752Z,27.17
2019-06-07T06:28:10.025Z,26.74
2019-06-07T06:30:24.225Z,25.79
2019-06-07T06:32:58.400Z,24.88
2019-06-07T06:35:29.406Z,24.78
2019-06-07T06:38:01.182Z,24.62
2019-06-07T06:40:33.128Z,24.17
2019-06-07T06:43:05.345Z,24.02
2019-06-07T06:45:38.052Z,24.39
2019-06-07T06:48:09.712Z,24.80
2019-06-07T06:50:41.128Z,25.23
2019-06-07T06:53:12.630Z,25.37
2019-06-07T06:55:47.947Z,25.28
2019-06-07T06:58:17.935Z,26.77
2019-06-07T07:01:04.980Z,26.28
2019-06-07T07:03:56.655Z,27.30
2019-06-07T07:06:24.218Z,27.54
2019-06-07T07:08:30.596Z,26.76
2019-06-07T07:11:02.519Z,27.74
2019-06-07T07:13:33.664Z,28.76
2019-06-07T07:16:05.390Z,29.85
2019-06-07T07:18:36.860Z,29.85
2019-06-07T07:21:08.058Z,30.18
2019-06-07T07:23:39.470Z,28.30
2019-06-07T07:26:10.875Z,28.17
2019-06-07T07:28:43.047Z,28.36
2019-06-07T07:31:14.837Z,28.79
2019-06-07T07:36:38.182Z,28.39
2019-06-07T07:39:00.649Z,28.41
2019-06-07T07:41:26.391Z,28.53
2019-06-07T07:44:06.016Z,28.39
2019-06-07T07:46:31.286Z,28.77
2019-06-07T07:49:02.562Z,29.35
2019-06-07T07:51:34.275Z,29.85
2019-06-07T07:54:10.835Z,30.89
2019-06-07T07:56:38.721Z,31.52
2019-06-07T07:59:10.283Z,30.61
2019-06-07T08:01:41.737Z,30.61
2019-06-07T08:04:13.454Z,31.09
2019-06-07T08:06:44.713Z,31.09
2019-06-07T08:09:16.422Z,31.72
2019-06-07T08:11:49.974Z,31.20
2019-06-07T08:14:21.566Z,31.41
2019-06-07T08:16:54.474Z,31.10
2019-06-07T08:19:26.312Z,30.41
2019-06-07T08:22:00.074Z,31.06
2019-06-07T08:24:30.803Z,29.95
2019-06-07T08:27:24.639Z,30.44
2019-06-07T08:29:44.816Z,30.55
2019-06-07T08:32:08.520Z,30.34
2019-06-07T08:34:40.392Z,31.53
2019-06-07T08:37:12.034Z,30.93
2019-06-07T08:39:43.309Z,31.03
2019-06-07T08:42:21.405Z,30.59
2019-06-07T08:44:49.203Z,31.23
2019-06-07T08:47:21.413Z,30.42
2019-06-07T08:49:56.783Z,30.44
2019-06-07T08:52:26.271Z,30.91
2019-06-07T08:55:01.691Z,30.81
2019-06-07T08:57:30.995Z,30.88
2019-06-07T09:00:07.120Z,30.69
2019-06-07T09:02:35.732Z,30.79
2019-06-07T09:05:12.245Z,31.26
2019-06-07T09:07:40.849Z,31.91
2019-06-07T09:10:14.619Z,31.06
2019-06-07T09:12:45.953Z,31.38
2019-06-07T09:15:23.315Z,31.78
2019-06-07T09:20:36.939Z,32.95
2019-06-07T09:23:07.134Z,32.07
2019-06-07T09:25:52.462Z,31.30
2019-06-07T09:28:17.479Z,31.13
2019-06-07T09:30:41.436Z,31.08
2019-06-07T09:33:14.188Z,31.90
2019-06-07T09:35:46.616Z,31.45
2019-06-07T09:38:25.685Z,32.04
2019-06-07T09:40:50.973Z,32.46
2019-06-07T09:45:58.859Z,32.47
2019-06-07T09:51:09.679Z,31.92
2019-06-07T09:53:36.834Z,31.86
2019-06-07T09:56:11.706Z,32.12
2019-06-07T09:58:51.892Z,31.79
2019-06-07T10:01:14.242Z,31.93
2019-06-07T10:03:45.574Z,32.26
2019-06-07T10:06:16.887Z,32.57
2019-06-07T10:11:21.257Z,31.48
2019-06-07T10:13:52.452Z,32.06
2019-06-07T10:16:23.960Z,32.17
2019-06-07T10:18:55.406Z,32.43
2019-06-07T10:21:26.912Z,32.75
2019-06-07T10:23:59.274Z,32.44
2019-06-07T10:26:30.962Z,32.43
2019-06-07T10:29:04.891Z,32.07
2019-06-07T10:31:35.558Z,32.29
2019-06-07T10:34:06.918Z,32.29
2019-06-07T10:36:38.553Z,32.71
2019-06-07T10:39:11.342Z,32.74
2019-06-07T10:41:43.054Z,31.89
2019-06-07T10:44:14.612Z,32.03
2019-06-07T10:46:46.302Z,32.73
2019-06-07T10:49:17.836Z,32.42
2019-06-07T10:51:49.282Z,32.00
2019-06-07T10:54:29.491Z,32.84
2019-06-07T10:56:54.363Z,32.15
2019-06-07T10:59:26.152Z,31.99
2019-06-07T11:01:57.679Z,31.64
2019-06-07T11:04:29.038Z,31.84
2019-06-07T11:07:00.553Z,31.94
2019-06-07T11:09:32.195Z,31.57
2019-06-07T11:12:04.333Z,31.68
2019-06-07T11:14:35.567Z,31.65
2019-06-07T11:17:07.390Z,32.08
2019-06-07T11:19:39.611Z,32.65
2019-06-07T11:22:12.115Z,32.47
2019-06-07T11:24:44.115Z,32.18
2019-06-07T11:27:16.279Z,32.07
2019-06-07T11:29:47.845Z,31.94
2019-06-07T11:32:19.174Z,31.88
2019-06-07T11:34:50.068Z,31.82
2019-06-07T11:37:21.285Z,31.85
2019-06-07T11:39:52.404Z,31.29
2019-06-07T11:42:23.771Z,31.21
2019-06-07T11:44:57.005Z,31.18
2019-06-07T11:47:27.860Z,31.05
2019-06-07T11:49:58.975Z,31.21
2019-06-07T11:52:30.152Z,30.92
2019-06-07T11:55:01.347Z,30.96
2019-06-07T11:57:33.409Z,30.63
2019-06-07T12:00:05.521Z,30.46
2019-06-07T12:02:36.866Z,30.61
2019-06-07T12:05:11.277Z,30.79
2019-06-07T12:07:41.546Z,30.96
2019-06-07T12:10:16.590Z,31.15
2019-06-07T12:12:46.783Z,31.17
2019-06-07T12:15:19.348Z,31.05
2019-06-07T12:17:50.931Z,31.12
2019-06-07T12:20:22.324Z,30.93
2019-06-07T12:22:53.696Z,31.04
2019-06-07T12:25:25.322Z,31.29
2019-06-07T12:27:56.696Z,31.20
2019-06-07T12:30:28.284Z,30.78
2019-06-07T12:32:59.498Z,30.54
2019-06-07T12:35:30.597Z,30.71
2019-06-07T12:38:01.978Z,30.85
2019-06-07T12:40:33.056Z,30.87
2019-06-07T12:43:04.341Z,30.76
2019-06-07T12:45:44.441Z,30.20
2019-06-07T12:48:08.483Z,29.74
2019-06-07T12:50:42.908Z,29.63
2019-06-07T12:53:13.533Z,29.92
2019-06-07T12:55:44.736Z,30.02
2019-06-07T12:58:16.051Z,30.05
2019-06-07T13:00:47.055Z,30.10
2019-06-07T13:03:18.439Z,29.98
2019-06-07T13:05:49.529Z,30.24
2019-06-07T13:08:22.059Z,30.34
2019-06-07T13:10:53.165Z,30.35
2019-06-07T13:13:24.643Z,30.36
2019-06-07T13:15:55.620Z,30.40
2019-06-07T13:18:26.706Z,30.61
2019-06-07T13:20:57.576Z,30.66
2019-06-07T13:23:29.111Z,30.80
2019-06-07T13:26:00.171Z,30.84
2019-06-07T13:28:31.772Z,30.91
2019-06-07T13:31:04.275Z,30.91
2019-06-07T13:33:38.641Z,30.96
2019-06-07T13:36:08.169Z,30.90
2019-06-07T13:38:39.501Z,30.81
2019-06-07T13:41:10.743Z,30.70
2019-06-07T13:43:41.913Z,30.75
2019-06-07T13:46:13.209Z,30.80
2019-06-07T13:48:44.601Z,30.84
2019-06-07T13:51:15.430Z,30.85
2019-06-07T13:53:46.407Z,30.92
2019-06-07T13:56:17.837Z,30.94
2019-06-07T13:58:49.180Z,30.96
2019-06-07T14:01:20.361Z,31.01
2019-06-07T14:03:51.815Z,31.02
2019-06-07T14:06:23.462Z,30.98
2019-06-07T14:08:54.984Z,31.01
2019-06-07T14:11:25.899Z,30.94
2019-06-07T14:13:57.154Z,30.83
2019-06-07T14:16:28.457Z,30.80
2019-06-07T14:19:00.081Z,30.88
2019-06-07T14:21:31.583Z,31.00
2019-06-07T14:24:02.567Z,31.07
2019-06-07T14:26:33.839Z,31.10
2019-06-07T14:29:05.207Z,31.06
2019-06-07T14:31:36.282Z,31.12
2019-06-07T14:34:07.472Z,31.20
2019-06-07T14:36:38.463Z,31.30
2019-06-07T14:39:09.570Z,31.35
2019-06-07T14:41:40.831Z,31.36
2019-06-07T14:44:11.927Z,31.34
2019-06-07T14:46:43.238Z,31.42
2019-06-07T14:49:14.284Z,31.33
2019-06-07T14:51:45.564Z,31.41
2019-06-07T14:54:16.695Z,31.39
2019-06-07T14:56:47.847Z,31.17
2019-06-07T14:59:18.876Z,31.09
2019-06-07T15:01:50.175Z,31.05
2019-06-07T15:04:21.263Z,30.82
2019-06-07T15:06:52.347Z,30.74
2019-06-07T15:09:23.429Z,30.75
2019-06-07T15:11:54.471Z,30.73
2019-06-07T15:14:25.432Z,30.66
2019-06-07T15:16:57.471Z,30.70
2019-06-07T15:19:28.977Z,30.65
2019-06-07T15:21:59.895Z,30.55
2019-06-07T15:24:35.375Z,30.61
2019-06-07T15:27:04.741Z,30.61
2019-06-07T15:29:36.179Z,30.66
2019-06-07T15:32:07.403Z,30.66
2019-06-07T15:34:38.488Z,30.47
2019-06-07T15:37:09.660Z,30.46
2019-06-07T15:39:40.853Z,30.37
2019-06-07T15:42:11.856Z,30.32
2019-06-07T15:44:46.575Z,30.27
2019-06-07T15:47:17.788Z,30.15
2019-06-07T15:49:49.064Z,30.13
2019-06-07T15:52:21.155Z,30.10
2019-06-07T15:54:52.324Z,30.07
2019-06-07T15:57:23.618Z,30.09
2019-06-07T15:59:54.494Z,30.03
2019-06-07T16:02:25.495Z,29.77
2019-06-07T16:04:56.415Z,29.79
2019-06-07T16:07:27.496Z,29.81
2019-06-07T16:09:58.630Z,29.69
2019-06-07T16:12:29.969Z,29.59
2019-06-07T16:15:01.124Z,29.35
2019-06-07T16:17:32.982Z,29.11
2019-06-07T16:20:04.749Z,29.00
2019-06-07T16:22:36.022Z,28.86
2019-06-07T16:25:08.359Z,28.74
2019-06-07T16:27:40.650Z,28.63
2019-06-07T16:30:13.722Z,28.52
2019-06-07T16:32:46.279Z,28.50
2019-06-07T16:35:17.495Z,28.50
2019-06-07T16:37:51.575Z,28.50
2019-06-07T16:40:21.935Z,28.42
2019-06-07T16:42:52.919Z,28.33
2019-06-07T16:45:24.623Z,28.37
2019-06-07T16:47:55.917Z,28.40
2019-06-07T16:50:27.140Z,28.37
2019-06-07T16:52:58.310Z,28.33
2019-06-07T16:55:29.656Z,28.26
2019-06-07T16:58:01.195Z,28.25
2019-06-07T17:00:32.396Z,28.28
2019-06-07T17:03:04.013Z,28.24
2019-06-07T17:05:35.649Z,28.16
2019-06-07T17:08:07.013Z,28.12
2019-06-07T17:10:38.299Z,28.10
2019-06-07T17:13:09.497Z,28.07
2019-06-07T17:15:40.774Z,28.04
2019-06-07T17:18:12.696Z,28.00
2019-06-07T17:20:45.301Z,27.96
2019-06-07T17:23:16.502Z,27.92
2019-06-07T17:25:47.610Z,27.91
2019-06-07T17:28:18.471Z,27.80
2019-06-07T17:30:50.317Z,27.80
2019-06-07T17:33:21.300Z,27.70
2019-06-07T17:35:52.391Z,27.70
2019-06-07T17:38:23.444Z,27.67
2019-06-07T17:40:54.634Z,27.67
2019-06-07T17:43:25.687Z,27.67
2019-06-07T17:45:56.796Z,27.66
2019-06-07T17:48:27.627Z,27.67
2019-06-07T17:50:58.657Z,27.61
2019-06-07T17:53:30.584Z,27.55
2019-06-07T17:56:01.665Z,27.61
2019-06-07T17:58:32.557Z,27.53
2019-06-07T18:01:03.561Z,27.50
2019-06-07T18:03:34.467Z,27.33
2019-06-07T18:06:05.809Z,27.33
2019-06-07T18:08:36.866Z,27.28
2019-06-07T18:11:07.889Z,27.20
2019-06-07T18:13:38.731Z,27.10
2019-06-07T18:16:09.630Z,27.05
2019-06-07T18:18:40.539Z,27.00
2019-06-07T18:21:11.453Z,26.97
2019-06-07T18:23:42.348Z,26.89
2019-06-07T18:26:13.490Z,26.85
2019-06-07T18:28:44.329Z,26.75
2019-06-07T18:31:15.413Z,26.67
2019-06-07T18:33:46.855Z,26.58
2019-06-07T18:36:17.798Z,26.49
2019-06-07T18:38:49.020Z,26.42
2019-06-07T18:41:19.988Z,26.33
2019-06-07T18:43:51.246Z,26.27
2019-06-07T18:46:22.512Z,26.14
2019-06-07T18:48:54.785Z,26.07
2019-06-07T18:51:26.300Z,25.95
2019-06-07T18:53:57.831Z,25.86
2019-06-07T18:56:28.860Z,25.76
2019-06-07T18:58:59.800Z,25.61
2019-06-07T19:01:30.733Z,25.53
2019-06-07T19:04:01.769Z,25.40
2019-06-07T19:06:32.844Z,25.31
2019-06-07T19:09:05.095Z,25.31
2019-06-07T19:11:36.222Z,25.15
2019-06-07T19:14:07.184Z,25.01
2019-06-07T19:16:38.203Z,24.83
2019-06-07T19:19:09.434Z,24.79
2019-06-07T19:21:40.437Z,24.72
2019-06-07T19:24:11.392Z,24.62
2019-06-07T19:26:42.637Z,24.50
2019-06-07T19:29:14.123Z,24.32
2019-06-07T19:31:46.223Z,24.26
2019-06-07T19:34:17.837Z,24.17
2019-06-07T19:36:49.267Z,24.09
2019-06-07T19:39:20.862Z,23.98
2019-06-07T19:41:52.480Z,23.83
2019-06-07T19:44:23.940Z,23.62
2019-06-07T19:46:56.372Z,23.53
2019-06-07T19:49:27.722Z,23.50
2019-06-07T19:51:59.101Z,23.34
2019-06-07T19:54:30.434Z,23.27
2019-06-07T19:57:01.919Z,23.09
2019-06-07T19:59:34.379Z,23.04
2019-06-07T20:02:05.887Z,22.96
2019-06-07T20:04:37.289Z,22.88
2019-06-07T20:07:08.804Z,22.83
2019-06-07T20:09:40.013Z,22.75
2019-06-07T20:12:11.652Z,22.75
2019-06-07T20:14:43.027Z,22.57
2019-06-07T20:17:14.432Z,22.50
2019-06-07T20:19:45.925Z,22.36
2019-06-07T20:22:17.740Z,22.31
2019-06-07T20:24:49.026Z,22.31
2019-06-07T20:27:20.343Z,22.33
2019-06-07T20:29:51.732Z,22.31
2019-06-07T20:32:23.023Z,22.35
2019-06-07T20:34:54.194Z,22.41
2019-06-07T20:37:25.783Z,22.42
2019-06-07T20:39:57.234Z,22.46
2019-06-07T20:42:28.668Z,22.48
2019-06-07T20:45:00.148Z,22.40
2019-06-07T20:47:31.808Z,22.38
2019-06-07T20:50:04.123Z,22.25
2019-06-07T20:52:35.978Z,22.24
2019-06-07T20:55:09.422Z,22.21
2019-06-07T20:57:41.538Z,22.11
2019-06-07T21:00:21.024Z,22.10
2019-06-07T21:02:47.005Z,22.05
2019-06-07T21:05:18.480Z,21.95
2019-06-07T21:07:49.874Z,21.93
2019-06-07T21:10:21.379Z,21.86
2019-06-07T21:12:52.656Z,21.81
2019-06-07T21:15:23.977Z,21.76
2019-06-07T21:17:55.182Z,21.58
2019-06-07T21:20:26.323Z,21.57
2019-06-07T21:22:57.655Z,21.50
2019-06-07T21:25:28.795Z,21.49
2019-06-07T21:28:00.942Z,21.47
2019-06-07T21:30:32.116Z,21.44
2019-06-07T21:33:03.690Z,21.39
2019-06-07T21:35:35.233Z,21.33
2019-06-07T21:38:07.857Z,21.18
2019-06-07T21:40:39.400Z,21.00
2019-06-07T21:43:10.761Z,20.91
2019-06-07T21:45:42.122Z,20.80
2019-06-07T21:48:14.410Z,20.74
2019-06-07T21:50:46.983Z,20.64
2019-06-07T21:53:18.541Z,20.55
2019-06-07T21:55:50.260Z,20.51
2019-06-07T21:58:22.051Z,20.50
2019-06-07T22:01:16.926Z,20.42
2019-06-07T22:03:49.444Z,20.39
2019-06-07T22:06:22.033Z,20.32
2019-06-07T22:08:53.633Z,20.33
2019-06-07T22:11:25.395Z,20.36
2019-06-07T22:13:57.304Z,20.32
2019-06-07T22:16:29.570Z,20.17
2019-06-07T22:19:01.305Z,20.21
2019-06-07T22:21:32.951Z,20.26
2019-06-07T22:24:04.859Z,20.25
2019-06-07T22:26:36.344Z,20.25
2019-06-07T22:29:08.235Z,20.23
2019-06-07T22:31:39.538Z,20.21
2019-06-07T22:34:11.104Z,20.16
2019-06-07T22:36:42.650Z,19.91
2019-06-07T22:39:14.078Z,19.85
2019-06-07T22:41:45.817Z,19.84
2019-06-07T22:44:17.341Z,19.81
2019-06-07T22:46:48.832Z,19.78
2019-06-07T22:49:20.550Z,19.73
2019-06-07T22:52:05.523Z,19.75
2019-06-07T22:54:25.214Z,19.74
2019-06-07T22:57:01.009Z,19.58
2019-06-07T22:59:32.555Z,19.51
2019-06-07T23:02:03.968Z,19.55
2019-06-07T23:04:35.279Z,19.48
2019-06-07T23:07:06.777Z,19.47
2019-06-07T23:09:38.310Z,19.41
2019-06-07T23:12:09.602Z,19.47
2019-06-07T23:14:40.908Z,19.55
2019-06-07T23:17:13.865Z,19.54
2019-06-07T23:19:46.188Z,19.48
2019-06-07T23:22:17.954Z,19.48
2019-06-07T23:24:49.465Z,19.53
2019-06-07T23:27:20.922Z,19.45
2019-06-07T23:29:52.326Z,19.48
2019-06-07T23:32:23.692Z,19.53
2019-06-07T23:34:55.261Z,19.50
2019-06-07T23:37:26.595Z,19.49
2019-06-07T23:39:58.077Z,19.48
2019-06-07T23:42:29.281Z,19.43
2019-06-07T23:45:00.769Z,19.38
2019-06-07T23:47:32.132Z,19.37
2019-06-07T23:50:03.642Z,19.28
2019-06-07T23:52:35.263Z,19.18
2019-06-07T23:55:08.047Z,19.10
2019-06-07T23:57:39.598Z,19.01
